logo
Rechercher aéroport 
image banner adimage banner adimage banner ad
image banner ad

YTRF - Trefoil Island

Situé à Woolnorth, Australia

ICAO - , IATA -

Données fournies par Airmate  

Information générale

Coordonnées: S40°37'56" E144°41'12"
Élévation : 218 feet MSL.
Variation magnétique : 13° East
Voir autres Aéroports à Tasmania

Données opérationnelles

Special qualification required
Heure actuelle UTC:
Heure actuelle locale:
Météo à : - ( 0 km )
METAR: KPNM 220916Z AUTO 28013G20KT 10SM OVC022 13/09 A2951 RMK AO2
Voir NOTAMs / SUP AIP / TFR affectant cet aéroport [VIEW]
Fréquences de communication: [VIEW]

Pistes:

Identifiant RWYQFULongueur (ft)Largeur (ft)SurfaceLDA (ft)
09107°137559DIRT
27287°137559DIRT

Coordonnées de l'aéroport

Adresse: Woolnorth Australia

Vue satellite de YTRF